createdAt,value
2023-04-15T00:00:04.647Z,616.64
2023-04-15T00:00:14.663Z,616.63
2023-04-15T00:00:24.654Z,616.31
2023-04-15T00:00:34.670Z,616.67
2023-04-15T00:00:44.649Z,616.28
2023-04-15T00:00:54.654Z,616.80
2023-04-15T00:01:04.664Z,617.03
2023-04-15T00:01:14.647Z,616.84
2023-04-15T00:01:24.652Z,616.79
2023-04-15T00:01:44.715Z,616.89
2023-04-15T00:01:54.741Z,616.94
2023-04-15T00:02:04.681Z,617.49
2023-04-15T00:02:14.745Z,617.44
2023-04-15T00:02:24.738Z,617.15
2023-04-15T00:02:34.825Z,617.05
2023-04-15T00:02:44.811Z,617.25
2023-04-15T00:02:54.800Z,616.77
2023-04-15T00:03:04.838Z,616.94
2023-04-15T00:03:14.915Z,616.65
2023-04-15T00:03:25.049Z,616.91
2023-04-15T00:03:44.735Z,616.98
2023-04-15T00:03:54.716Z,617.17
2023-04-15T00:04:04.786Z,616.98
2023-04-15T00:04:14.722Z,617.12
2023-04-15T00:04:24.735Z,617.13
2023-04-15T00:04:34.747Z,616.92
2023-04-15T00:04:44.787Z,617.14
2023-04-15T00:04:54.837Z,617.23
2023-04-15T00:05:04.663Z,617.03
2023-04-15T00:05:14.667Z,617.12
2023-04-15T00:05:24.694Z,617.54
2023-04-15T00:05:34.667Z,617.01
2023-04-15T00:05:44.710Z,617.20
2023-04-15T00:05:54.688Z,617.54
2023-04-15T00:06:04.673Z,617.72
2023-04-15T00:06:14.674Z,616.77
2023-04-15T00:06:24.671Z,617.35
2023-04-15T00:06:34.693Z,617.38
2023-04-15T00:06:54.704Z,617.47
2023-04-15T00:07:04.674Z,617.25
2023-04-15T00:07:14.684Z,617.45
2023-04-15T00:07:24.676Z,617.54
2023-04-15T00:07:34.681Z,617.74
2023-04-15T00:07:44.708Z,617.04
2023-04-15T00:07:54.686Z,617.19
2023-04-15T00:08:04.685Z,617.20
2023-04-15T00:08:14.685Z,617.13
2023-04-15T00:08:24.684Z,617.29
2023-04-15T00:08:34.687Z,617.11
2023-04-15T00:08:54.680Z,617.50
2023-04-15T00:09:04.686Z,617.47
2023-04-15T00:09:14.683Z,617.69
2023-04-15T00:09:24.687Z,617.50
2023-04-15T00:09:34.690Z,617.39
2023-04-15T00:09:44.740Z,617.69
2023-04-15T00:09:54.691Z,617.61
2023-04-15T00:10:04.687Z,617.51
2023-04-15T00:10:14.696Z,617.30
2023-04-15T00:10:24.696Z,617.86
2023-04-15T00:10:44.705Z,617.95
2023-04-15T00:10:54.701Z,617.80
2023-04-15T00:11:04.691Z,617.52
2023-04-15T00:11:14.688Z,617.66
2023-04-15T00:11:24.726Z,617.52
2023-04-15T00:11:34.705Z,617.70
2023-04-15T00:11:54.696Z,617.70
2023-04-15T00:12:04.700Z,617.38
2023-04-15T00:12:14.695Z,617.92
2023-04-15T00:12:24.708Z,617.81
2023-04-15T00:12:34.698Z,617.89
2023-04-15T00:12:44.704Z,617.81
2023-04-15T00:12:54.742Z,617.53
2023-04-15T00:13:04.705Z,618.35
2023-04-15T00:13:14.743Z,618.08
2023-04-15T00:13:24.711Z,618.18
2023-04-15T00:13:34.704Z,618.07
2023-04-15T00:13:54.703Z,617.94
2023-04-15T00:14:04.726Z,617.74
2023-04-15T00:14:14.704Z,617.83
2023-04-15T00:14:24.729Z,617.82
2023-04-15T00:14:34.716Z,618.04
2023-04-15T00:14:44.707Z,617.76
2023-04-15T00:14:54.715Z,617.54
2023-04-15T00:15:14.706Z,617.95
2023-04-15T00:15:24.714Z,617.55
2023-04-15T00:15:34.728Z,617.72
2023-04-15T00:15:44.721Z,617.76
2023-04-15T00:15:54.715Z,617.75
2023-04-15T00:16:04.731Z,617.89
2023-04-15T00:16:14.729Z,617.66
2023-04-15T00:16:24.739Z,617.81
2023-04-15T00:16:44.763Z,617.87
2023-04-15T00:16:54.741Z,618.14
2023-04-15T00:17:04.818Z,618.00
2023-04-15T00:17:14.725Z,617.84
2023-04-15T00:17:24.770Z,617.80
2023-04-15T00:17:34.804Z,617.97
2023-04-15T00:17:44.776Z,617.88
2023-04-15T00:17:54.731Z,617.97
2023-04-15T00:18:04.739Z,618.04
2023-04-15T00:18:14.725Z,618.14
2023-04-15T00:18:34.746Z,617.98
2023-04-15T00:18:44.734Z,618.16
2023-04-15T00:18:54.733Z,618.18
2023-04-15T00:19:04.739Z,618.10
2023-04-15T00:19:14.735Z,618.03
2023-04-15T00:19:24.749Z,618.34
2023-04-15T00:19:34.735Z,618.16
2023-04-15T00:19:44.750Z,618.16
2023-04-15T00:19:54.734Z,617.35
2023-04-15T00:20:04.751Z,618.50
2023-04-15T00:20:14.735Z,617.83
2023-04-15T00:20:24.736Z,618.36
2023-04-15T00:20:34.746Z,617.69
2023-04-15T00:20:44.752Z,617.87
2023-04-15T00:20:54.758Z,618.10
2023-04-15T00:21:04.739Z,618.07
2023-04-15T00:21:14.738Z,617.86
2023-04-15T00:21:34.756Z,617.82
2023-04-15T00:21:44.741Z,617.96
2023-04-15T00:21:54.740Z,617.89
2023-04-15T00:22:04.735Z,617.95
2023-04-15T00:22:14.745Z,617.79
2023-04-15T00:22:24.743Z,618.07
2023-04-15T00:22:34.773Z,618.13
2023-04-15T00:22:54.757Z,618.02
2023-04-15T00:23:04.746Z,618.03
2023-04-15T00:23:14.789Z,618.05
2023-04-15T00:23:24.756Z,618.12
2023-04-15T00:23:34.742Z,618.42
2023-04-15T00:23:44.753Z,618.01
2023-04-15T00:23:54.748Z,618.26
2023-04-15T00:24:14.767Z,618.30
2023-04-15T00:24:24.756Z,618.41
2023-04-15T00:24:34.754Z,618.32
2023-04-15T00:24:44.758Z,618.27
2023-04-15T00:24:54.770Z,618.33
2023-04-15T00:25:04.748Z,618.25
2023-04-15T00:25:24.770Z,617.97
2023-04-15T00:25:34.771Z,618.04
2023-04-15T00:25:44.764Z,618.06
2023-04-15T00:25:54.760Z,617.99
2023-04-15T00:26:04.776Z,618.05
2023-04-15T00:26:14.772Z,618.11
2023-04-15T00:26:24.765Z,618.00
2023-04-15T00:26:34.759Z,618.19
2023-04-15T00:26:44.763Z,617.99
2023-04-15T00:26:54.768Z,618.09
2023-04-15T00:27:14.780Z,617.96
2023-04-15T00:27:24.770Z,617.89
2023-04-15T00:27:34.770Z,617.75
2023-04-15T00:27:44.770Z,617.98
2023-04-15T00:27:54.767Z,618.09
2023-04-15T00:28:04.768Z,617.95
2023-04-15T00:28:14.782Z,618.35
2023-04-15T00:28:24.780Z,617.76
2023-04-15T00:28:34.763Z,617.95
2023-04-15T00:28:44.771Z,618.04
2023-04-15T00:28:54.785Z,617.94
2023-04-15T00:29:04.771Z,617.96
2023-04-15T00:29:24.775Z,618.21
2023-04-15T00:29:34.785Z,618.14
2023-04-15T00:29:44.805Z,618.10
2023-04-15T00:29:54.776Z,618.21
2023-04-15T00:30:04.774Z,618.22
2023-04-15T00:30:14.780Z,618.38
2023-04-15T00:30:24.779Z,618.20
2023-04-15T00:30:34.824Z,618.21
2023-04-15T00:30:54.814Z,618.29
2023-04-15T00:31:04.803Z,618.18
2023-04-15T00:31:14.817Z,618.15
2023-04-15T00:31:24.846Z,618.07
2023-04-15T00:31:34.779Z,618.11
2023-04-15T00:31:44.802Z,618.91
2023-04-15T00:31:54.791Z,618.43
2023-04-15T00:32:04.789Z,617.92
2023-04-15T00:32:24.795Z,617.74
2023-04-15T00:32:34.814Z,618.29
2023-04-15T00:32:44.862Z,618.26
2023-04-15T00:32:54.830Z,618.47
2023-04-15T00:33:04.791Z,618.50
2023-04-15T00:33:14.818Z,617.79
2023-04-15T00:33:24.807Z,617.96
2023-04-15T00:33:34.787Z,617.91
2023-04-15T00:33:54.811Z,618.26
2023-04-15T00:34:04.799Z,617.87
2023-04-15T00:34:14.817Z,618.24
2023-04-15T00:34:24.812Z,618.27
2023-04-15T00:34:34.798Z,618.33
2023-04-15T00:34:44.799Z,618.25
2023-04-15T00:34:54.792Z,618.50
2023-04-15T00:35:04.797Z,618.21
2023-04-15T00:35:14.810Z,618.23
2023-04-15T00:35:24.817Z,618.58
2023-04-15T00:35:34.796Z,618.35
2023-04-15T00:35:44.806Z,618.34
2023-04-15T00:35:54.806Z,618.40
2023-04-15T00:36:04.803Z,618.33
2023-04-15T00:36:14.813Z,618.24
2023-04-15T00:36:34.827Z,618.35
2023-04-15T00:36:44.818Z,618.01
2023-04-15T00:36:54.808Z,618.30
2023-04-15T00:37:04.803Z,618.45
2023-04-15T00:37:14.807Z,618.42
2023-04-15T00:37:25.715Z,618.66
2023-04-15T00:37:46.223Z,618.55
2023-04-15T00:37:54.812Z,618.76
2023-04-15T00:38:04.828Z,618.76
2023-04-15T00:38:14.808Z,618.28
2023-04-15T00:38:24.831Z,618.73
2023-04-15T00:38:34.816Z,618.96
2023-04-15T00:38:44.821Z,618.61
2023-04-15T00:38:54.838Z,618.78
2023-04-15T00:39:04.821Z,618.68
2023-04-15T00:39:14.817Z,618.93
2023-04-15T00:39:24.817Z,618.65
2023-04-15T00:39:34.820Z,618.62
2023-04-15T00:39:44.859Z,618.73
2023-04-15T00:39:54.834Z,618.82
2023-04-15T00:40:04.828Z,618.89
2023-04-15T00:40:14.831Z,618.82
2023-04-15T00:40:24.844Z,618.51
2023-04-15T00:40:34.814Z,618.78
2023-04-15T00:40:44.836Z,618.62
2023-04-15T00:40:54.833Z,618.65
2023-04-15T00:41:04.840Z,618.58
2023-04-15T00:41:14.828Z,618.87
2023-04-15T00:41:24.832Z,618.88
2023-04-15T00:41:34.848Z,618.54
2023-04-15T00:41:44.843Z,618.60
2023-04-15T00:42:04.834Z,618.68
2023-04-15T00:42:14.854Z,618.51
2023-04-15T00:42:24.829Z,618.61
2023-04-15T00:42:34.848Z,618.89
2023-04-15T00:42:44.850Z,618.75
2023-04-15T00:42:54.835Z,618.83
2023-04-15T00:43:04.877Z,618.80
2023-04-15T00:43:24.839Z,618.68
2023-04-15T00:43:34.851Z,618.54
2023-04-15T00:43:44.834Z,618.85
2023-04-15T00:43:54.841Z,618.54
2023-04-15T00:44:04.844Z,618.82
2023-04-15T00:44:14.832Z,619.08
2023-04-15T00:44:34.848Z,618.85
2023-04-15T00:44:44.840Z,618.82
2023-04-15T00:44:54.846Z,618.95
2023-04-15T00:45:04.845Z,618.83
2023-04-15T00:45:14.856Z,619.06
2023-04-15T00:45:24.847Z,618.89
2023-04-15T00:45:34.859Z,618.99
2023-04-15T00:45:44.884Z,618.98
2023-04-15T00:46:04.883Z,618.97
2023-04-15T00:46:14.901Z,618.98
2023-04-15T00:46:24.900Z,619.26
2023-04-15T00:46:34.848Z,619.06
2023-04-15T00:46:44.851Z,619.19
2023-04-15T00:46:54.849Z,619.20
2023-04-15T00:47:04.876Z,618.80
2023-04-15T00:47:14.858Z,618.53
2023-04-15T00:47:24.892Z,618.82
2023-04-15T00:47:34.869Z,618.97
2023-04-15T00:47:44.921Z,619.06
2023-04-15T00:47:54.876Z,618.92
2023-04-15T00:48:04.895Z,619.24
2023-04-15T00:48:14.867Z,619.21
2023-04-15T00:48:34.861Z,619.07
2023-04-15T00:48:44.861Z,619.23
2023-04-15T00:48:54.862Z,619.07
2023-04-15T00:49:04.863Z,619.72
2023-04-15T00:49:14.869Z,619.25
2023-04-15T00:49:24.866Z,619.08
2023-04-15T00:49:34.894Z,619.27
2023-04-15T00:49:44.858Z,619.53
2023-04-15T00:49:54.857Z,619.23
2023-04-15T00:50:04.904Z,619.04
2023-04-15T00:50:14.903Z,619.39
2023-04-15T00:50:24.864Z,619.14
2023-04-15T00:50:44.876Z,618.92
2023-04-15T00:50:54.878Z,619.06
2023-04-15T00:51:04.864Z,619.06
2023-04-15T00:51:14.912Z,619.23
2023-04-15T00:51:24.868Z,619.12
2023-04-15T00:51:34.882Z,619.24
2023-04-15T00:51:44.868Z,619.23
2023-04-15T00:51:54.893Z,619.31
2023-04-15T00:52:04.864Z,619.33
2023-04-15T00:52:14.867Z,619.35
2023-04-15T00:52:24.866Z,619.68
2023-04-15T00:52:34.881Z,619.38
2023-04-15T00:52:44.874Z,619.39
2023-04-15T00:53:04.876Z,619.33
2023-04-15T00:53:14.875Z,619.61
2023-04-15T00:53:24.876Z,619.57
2023-04-15T00:53:34.886Z,619.32
2023-04-15T00:53:44.886Z,619.68
2023-04-15T00:53:54.877Z,619.29
2023-04-15T00:54:04.885Z,619.45
2023-04-15T00:54:24.876Z,619.55
2023-04-15T00:54:34.878Z,619.46
2023-04-15T00:54:44.878Z,619.64
2023-04-15T00:54:54.880Z,619.96
2023-04-15T00:55:04.924Z,620.00
2023-04-15T00:55:14.880Z,620.11
2023-04-15T00:55:24.880Z,619.56
2023-04-15T00:55:34.890Z,619.51
2023-04-15T00:55:44.882Z,619.62
2023-04-15T00:55:54.887Z,619.44
2023-04-15T00:56:04.896Z,619.40
2023-04-15T00:56:14.887Z,619.64
2023-04-15T00:56:24.892Z,619.46
2023-04-15T00:56:34.886Z,619.33
2023-04-15T00:56:44.894Z,619.43
2023-04-15T00:56:54.891Z,619.07
2023-04-15T00:57:04.891Z,619.21
2023-04-15T00:57:14.892Z,618.77
2023-04-15T00:57:24.917Z,619.67
2023-04-15T00:57:34.922Z,619.37
2023-04-15T00:57:44.889Z,619.45
2023-04-15T00:57:54.901Z,619.10
2023-04-15T00:58:04.895Z,619.06
2023-04-15T00:58:14.896Z,619.73
2023-04-15T00:58:24.908Z,619.97
2023-04-15T00:58:34.918Z,619.82
2023-04-15T00:58:44.906Z,619.76
2023-04-15T00:58:54.913Z,619.34
2023-04-15T00:59:14.905Z,620.22
2023-04-15T00:59:24.908Z,620.23
2023-04-15T00:59:34.906Z,620.28
2023-04-15T00:59:44.905Z,619.62
2023-04-15T00:59:54.902Z,619.72
2023-04-15T01:00:04.935Z,619.94
2023-04-15T01:00:14.908Z,619.87
2023-04-15T01:00:24.916Z,620.09
2023-04-15T01:00:34.907Z,620.22
2023-04-15T01:00:44.913Z,619.98
2023-04-15T01:00:54.909Z,619.89
2023-04-15T01:01:04.910Z,619.87
2023-04-15T01:01:14.986Z,619.69
2023-04-15T01:01:24.965Z,620.03
2023-04-15T01:01:34.979Z,620.07
2023-04-15T01:01:45.051Z,620.04
2023-04-15T01:01:54.983Z,619.99
2023-04-15T01:02:05.026Z,619.73
2023-04-15T01:02:15.003Z,619.60
2023-04-15T01:02:35.006Z,619.83
2023-04-15T01:02:45.081Z,620.24
2023-04-15T01:02:55.079Z,620.19
2023-04-15T01:03:05.194Z,620.20
2023-04-15T01:03:15.006Z,620.20
2023-04-15T01:03:25.061Z,620.05
2023-04-15T01:03:35.089Z,620.05
2023-04-15T01:03:45.241Z,620.17
2023-04-15T01:04:05.118Z,620.06
2023-04-15T01:04:15.049Z,619.90
2023-04-15T01:04:25.008Z,619.96
2023-04-15T01:04:35.057Z,620.02
2023-04-15T01:04:44.928Z,619.88
2023-04-15T01:04:54.922Z,620.03
2023-04-15T01:05:04.963Z,619.79
2023-04-15T01:05:14.934Z,620.19
2023-04-15T01:05:24.947Z,620.12
2023-04-15T01:05:34.938Z,620.23
2023-04-15T01:05:44.935Z,620.11
2023-04-15T01:05:54.936Z,620.13
2023-04-15T01:06:04.940Z,620.02
2023-04-15T01:06:14.944Z,620.37
2023-04-15T01:06:24.941Z,620.65
2023-04-15T01:06:34.933Z,619.70
2023-04-15T01:06:44.938Z,620.55
2023-04-15T01:06:54.944Z,620.50
2023-04-15T01:07:04.963Z,620.00
2023-04-15T01:07:24.938Z,620.64
2023-04-15T01:07:34.965Z,620.37
2023-04-15T01:07:44.942Z,620.21
2023-04-15T01:07:54.941Z,620.36
2023-04-15T01:08:04.956Z,620.07
2023-04-15T01:08:14.972Z,619.92
2023-04-15T01:08:24.945Z,620.66
2023-04-15T01:08:34.963Z,621.25
2023-04-15T01:08:44.948Z,620.71
2023-04-15T01:08:54.950Z,620.13
2023-04-15T01:09:05.015Z,620.45
2023-04-15T01:09:24.958Z,620.07
2023-04-15T01:09:34.949Z,619.92
2023-04-15T01:09:44.959Z,620.35
2023-04-15T01:09:54.950Z,620.73
2023-04-15T01:10:04.983Z,620.46
2023-04-15T01:10:14.959Z,620.31
2023-04-15T01:10:24.975Z,620.68
2023-04-15T01:10:34.956Z,620.04
2023-04-15T01:10:44.950Z,620.51
2023-04-15T01:10:54.955Z,620.12
2023-04-15T01:11:14.958Z,620.27
2023-04-15T01:11:24.986Z,620.18
2023-04-15T01:11:34.954Z,620.13
2023-04-15T01:11:44.977Z,620.52
2023-04-15T01:11:54.956Z,620.13
2023-04-15T01:12:04.969Z,620.48
2023-04-15T01:12:14.963Z,620.47
2023-04-15T01:12:24.965Z,620.43
2023-04-15T01:12:34.965Z,620.66
2023-04-15T01:12:54.962Z,620.38
2023-04-15T01:13:04.966Z,620.36
2023-04-15T01:13:15.005Z,620.35
2023-04-15T01:13:24.969Z,620.49
2023-04-15T01:13:34.970Z,620.50
2023-04-15T01:13:44.989Z,620.43
2023-04-15T01:13:54.970Z,620.64
2023-04-15T01:14:04.969Z,620.04
2023-04-15T01:14:24.968Z,619.56
2023-04-15T01:14:34.970Z,619.71
2023-04-15T01:14:45.005Z,620.25
2023-04-15T01:14:55.022Z,620.23
2023-04-15T01:15:04.978Z,620.35
2023-04-15T01:15:15.010Z,620.36
2023-04-15T01:15:24.973Z,620.52
2023-04-15T01:15:34.973Z,620.35
2023-04-15T01:15:54.994Z,620.42
2023-04-15T01:16:05.023Z,620.57
2023-04-15T01:16:15.030Z,620.38
2023-04-15T01:16:25.001Z,620.42
2023-04-15T01:16:35.038Z,620.55
2023-04-15T01:16:44.984Z,620.35
2023-04-15T01:16:54.977Z,620.08
2023-04-15T01:17:04.991Z,620.38
2023-04-15T01:17:14.982Z,620.53
2023-04-15T01:17:25.016Z,620.58
2023-04-15T01:17:35.001Z,620.94
2023-04-15T01:17:44.992Z,620.51
2023-04-15T01:17:55.053Z,620.58
2023-04-15T01:18:05.079Z,620.80
2023-04-15T01:18:15.016Z,621.22
2023-04-15T01:18:25.007Z,621.00
2023-04-15T01:18:34.987Z,620.69
2023-04-15T01:18:45.013Z,620.87
2023-04-15T01:18:54.989Z,620.74
2023-04-15T01:19:05.004Z,620.99
2023-04-15T01:19:24.991Z,620.87
2023-04-15T01:19:34.994Z,620.80
2023-04-15T01:19:44.998Z,620.76
2023-04-15T01:19:55.003Z,620.85
2023-04-15T01:20:04.997Z,620.81
2023-04-15T01:20:15.008Z,620.89
2023-04-15T01:20:25.003Z,620.90
2023-04-15T01:20:35.004Z,621.01
2023-04-15T01:20:55.001Z,621.03
2023-04-15T01:21:05.011Z,620.62
2023-04-15T01:21:15.027Z,621.09
2023-04-15T01:21:25.014Z,621.41
2023-04-15T01:21:35.001Z,621.02
2023-04-15T01:21:45.041Z,620.97
2023-04-15T01:21:55.013Z,621.00
2023-04-15T01:22:15.033Z,621.12
2023-04-15T01:22:25.010Z,621.44
2023-04-15T01:22:35.018Z,621.06
2023-04-15T01:22:45.016Z,621.43
2023-04-15T01:22:55.027Z,621.33
2023-04-15T01:23:05.020Z,621.49
2023-04-15T01:23:25.019Z,621.20
2023-04-15T01:23:35.014Z,620.93
2023-04-15T01:23:45.028Z,620.81
2023-04-15T01:23:55.012Z,620.97
2023-04-15T01:24:05.012Z,621.13
2023-04-15T01:24:15.028Z,621.18
2023-04-15T01:24:35.018Z,621.26
2023-04-15T01:24:45.030Z,621.30
2023-04-15T01:24:55.026Z,621.18
2023-04-15T01:25:05.022Z,621.34
2023-04-15T01:25:15.020Z,621.24
2023-04-15T01:25:25.021Z,621.27
2023-04-15T01:25:35.026Z,621.07
2023-04-15T01:25:45.046Z,621.13
2023-04-15T01:25:55.015Z,621.04
2023-04-15T01:26:15.046Z,621.05
2023-04-15T01:26:25.029Z,620.94
2023-04-15T01:26:35.026Z,621.15
2023-04-15T01:26:45.023Z,620.98
2023-04-15T01:26:55.026Z,620.77
2023-04-15T01:27:05.021Z,620.67
2023-04-15T01:27:25.049Z,620.77
2023-04-15T01:27:35.026Z,620.62
2023-04-15T01:27:45.021Z,620.94
2023-04-15T01:27:55.025Z,620.80
2023-04-15T01:28:05.059Z,620.30
2023-04-15T01:28:15.022Z,620.86
2023-04-15T01:28:35.031Z,620.79
2023-04-15T01:28:45.037Z,620.51
2023-04-15T01:28:55.030Z,620.70
2023-04-15T01:29:05.027Z,620.78
2023-04-15T01:29:15.031Z,620.64
2023-04-15T01:29:25.028Z,620.74
2023-04-15T01:29:35.033Z,620.80
2023-04-15T01:29:45.083Z,620.83
2023-04-15T01:30:05.030Z,620.45
2023-04-15T01:30:15.033Z,620.89
2023-04-15T01:30:25.035Z,620.93
2023-04-15T01:30:35.031Z,620.88
2023-04-15T01:30:45.040Z,620.97
2023-04-15T01:30:55.047Z,620.98
2023-04-15T01:31:05.083Z,621.02
2023-04-15T01:31:15.083Z,620.86
2023-04-15T01:31:25.075Z,620.77
2023-04-15T01:31:35.055Z,620.93
2023-04-15T01:31:45.049Z,620.79
2023-04-15T01:31:55.108Z,620.86
2023-04-15T01:32:05.051Z,621.06
2023-04-15T01:32:15.050Z,621.28
2023-04-15T01:32:25.079Z,621.21
2023-04-15T01:32:35.068Z,621.37
2023-04-15T01:32:45.069Z,621.24
2023-04-15T01:32:55.120Z,621.49
2023-04-15T01:33:05.071Z,621.59
2023-04-15T01:33:25.056Z,620.56
2023-04-15T01:33:35.035Z,621.49
2023-04-15T01:33:45.049Z,621.21
2023-04-15T01:33:55.044Z,621.30
2023-04-15T01:34:05.067Z,621.45
2023-04-15T01:34:15.069Z,621.50
2023-04-15T01:34:35.946Z,621.40
2023-04-15T01:34:45.030Z,621.45
2023-04-15T01:34:55.048Z,621.57
2023-04-15T01:35:05.055Z,621.31
2023-04-15T01:35:15.063Z,621.40
2023-04-15T01:35:25.065Z,621.18
2023-04-15T01:35:35.057Z,621.62
2023-04-15T01:35:45.053Z,621.45
2023-04-15T01:35:55.056Z,621.77
2023-04-15T01:36:05.061Z,621.95
2023-04-15T01:36:15.056Z,621.57
2023-04-15T01:36:25.056Z,621.49
2023-04-15T01:36:35.048Z,621.79
2023-04-15T01:36:45.076Z,621.69
2023-04-15T01:36:55.054Z,621.76
2023-04-15T01:37:05.054Z,622.05
2023-04-15T01:37:15.060Z,622.52
2023-04-15T01:37:25.083Z,622.01
2023-04-15T01:37:35.060Z,621.14
2023-04-15T01:37:45.076Z,622.10
2023-04-15T01:37:55.054Z,622.05
2023-04-15T01:38:05.065Z,621.66
2023-04-15T01:38:15.066Z,622.09
2023-04-15T01:38:25.077Z,621.82
2023-04-15T01:38:35.064Z,622.02
2023-04-15T01:38:55.078Z,622.18
2023-04-15T01:39:05.075Z,621.69
2023-04-15T01:39:15.092Z,622.12
2023-04-15T01:39:25.069Z,621.65
2023-04-15T01:39:35.071Z,621.85
2023-04-15T01:39:45.078Z,621.78
2023-04-15T01:39:55.079Z,622.00
2023-04-15T01:40:05.072Z,621.98
2023-04-15T01:40:15.074Z,621.92
2023-04-15T01:40:25.090Z,621.99
2023-04-15T01:40:35.098Z,621.93
2023-04-15T01:40:45.088Z,621.97
2023-04-15T01:40:55.090Z,621.91
2023-04-15T01:41:05.103Z,621.83
2023-04-15T01:41:15.080Z,621.71
2023-04-15T01:41:25.104Z,621.85
2023-04-15T01:41:35.077Z,621.82
2023-04-15T01:41:45.094Z,621.89
2023-04-15T01:41:55.084Z,622.13
2023-04-15T01:42:15.089Z,621.89
2023-04-15T01:42:25.081Z,621.87
2023-04-15T01:42:35.088Z,621.84
2023-04-15T01:42:45.086Z,621.70
2023-04-15T01:42:55.089Z,621.92
2023-04-15T01:43:05.092Z,621.84
2023-04-15T01:43:15.116Z,621.90
2023-04-15T01:43:25.126Z,622.12
2023-04-15T01:43:35.092Z,621.91
2023-04-15T01:43:45.085Z,621.71
2023-04-15T01:43:55.088Z,621.88
2023-04-15T01:44:05.094Z,621.86
2023-04-15T01:44:15.089Z,621.72
2023-04-15T01:44:35.094Z,621.59
2023-04-15T01:44:45.104Z,621.79
2023-04-15T01:44:55.098Z,621.81
2023-04-15T01:45:05.098Z,621.68
2023-04-15T01:45:15.097Z,621.66
2023-04-15T01:45:25.099Z,621.73
2023-04-15T01:45:35.093Z,621.81
2023-04-15T01:45:55.096Z,621.92
2023-04-15T01:46:05.117Z,621.60
2023-04-15T01:46:15.126Z,621.64
2023-04-15T01:46:25.116Z,621.99
2023-04-15T01:46:35.133Z,621.90
2023-04-15T01:46:45.137Z,621.80
2023-04-15T01:46:55.150Z,621.72
2023-04-15T01:47:15.105Z,621.86
2023-04-15T01:47:25.143Z,621.77
2023-04-15T01:47:35.220Z,621.68
2023-04-15T01:47:45.121Z,621.70
2023-04-15T01:47:55.146Z,621.67
2023-04-15T01:48:05.117Z,621.97
2023-04-15T01:48:15.119Z,621.90
2023-04-15T01:48:35.126Z,621.82
2023-04-15T01:48:45.112Z,621.94
2023-04-15T01:48:55.121Z,621.67
2023-04-15T01:49:05.123Z,621.92
2023-04-15T01:49:15.136Z,621.95
2023-04-15T01:49:25.111Z,622.04
2023-04-15T01:49:35.113Z,621.94
2023-04-15T01:49:45.111Z,621.81
2023-04-15T01:50:05.121Z,621.91
2023-04-15T01:50:15.123Z,622.39
2023-04-15T01:50:25.118Z,622.44
2023-04-15T01:50:35.118Z,622.00
2023-04-15T01:50:45.127Z,622.27
2023-04-15T01:50:55.113Z,622.30
2023-04-15T01:51:05.131Z,622.12
2023-04-15T01:51:15.123Z,622.31
2023-04-15T01:51:25.120Z,622.09
2023-04-15T01:51:35.113Z,622.49
2023-04-15T01:51:45.124Z,622.22
2023-04-15T01:51:55.119Z,622.40
2023-04-15T01:52:05.123Z,621.82
2023-04-15T01:52:15.124Z,621.63
2023-04-15T01:52:25.136Z,622.12
2023-04-15T01:52:35.167Z,622.28
2023-04-15T01:52:45.125Z,622.25
2023-04-15T01:52:55.135Z,622.01
2023-04-15T01:53:05.120Z,621.96
2023-04-15T01:53:15.129Z,621.77
2023-04-15T01:53:25.146Z,622.04
2023-04-15T01:53:45.138Z,622.15
2023-04-15T01:53:55.128Z,622.39
2023-04-15T01:54:05.138Z,622.48
2023-04-15T01:54:15.135Z,622.63
2023-04-15T01:54:25.131Z,621.86
2023-04-15T01:54:35.137Z,622.48
2023-04-15T01:54:55.131Z,621.75
2023-04-15T01:55:05.131Z,622.03
2023-04-15T01:55:15.138Z,622.17
2023-04-15T01:55:25.138Z,621.83
2023-04-15T01:55:35.155Z,622.34
2023-04-15T01:55:45.135Z,622.40
2023-04-15T01:55:55.132Z,622.00
2023-04-15T01:56:05.136Z,622.93
2023-04-15T01:56:16.879Z,622.49
2023-04-15T01:56:25.136Z,622.72
2023-04-15T01:56:45.167Z,621.76
2023-04-15T01:56:55.138Z,622.01
2023-04-15T01:57:05.142Z,622.50
2023-04-15T01:57:15.163Z,621.80
2023-04-15T01:57:25.156Z,622.49
2023-04-15T01:57:35.148Z,622.11
2023-04-15T01:57:55.144Z,622.04
2023-04-15T01:58:05.147Z,620.93
2023-04-15T01:58:15.161Z,621.65
2023-04-15T01:58:25.189Z,621.64
2023-04-15T01:58:35.178Z,621.49
2023-04-15T01:58:45.152Z,621.32
2023-04-15T01:59:05.153Z,621.26
2023-04-15T01:59:15.171Z,621.71
2023-04-15T01:59:25.155Z,621.74
2023-04-15T01:59:35.169Z,621.83
2023-04-15T01:59:45.162Z,621.86
2023-04-15T01:59:55.166Z,621.88
2023-04-15T02:00:15.151Z,621.73
2023-04-15T02:00:25.199Z,622.05
2023-04-15T02:00:35.181Z,622.09
2023-04-15T02:00:45.196Z,622.40
2023-04-15T02:00:55.205Z,622.04
2023-04-15T02:01:05.217Z,622.05
2023-04-15T02:01:15.202Z,621.93
2023-04-15T02:01:35.166Z,621.78
2023-04-15T02:01:45.187Z,622.17
2023-04-15T02:01:55.278Z,622.19
2023-04-15T02:02:05.184Z,622.11
2023-04-15T02:02:15.191Z,621.92
2023-04-15T02:02:25.225Z,622.34
2023-04-15T02:02:35.223Z,622.18
2023-04-15T02:02:45.286Z,621.73
2023-04-15T02:03:05.265Z,621.75
2023-04-15T02:03:15.296Z,621.60
2023-04-15T02:03:25.249Z,621.89
2023-04-15T02:03:35.283Z,622.01
2023-04-15T02:03:45.294Z,622.08
2023-04-15T02:03:55.201Z,621.91
2023-04-15T02:04:05.321Z,621.74
2023-04-15T02:04:15.168Z,621.70
2023-04-15T02:04:25.188Z,621.71
2023-04-15T02:04:45.168Z,622.40
2023-04-15T02:04:55.200Z,621.92
2023-04-15T02:05:05.175Z,622.66
2023-04-15T02:05:15.172Z,622.11
2023-04-15T02:05:25.178Z,622.79
2023-04-15T02:05:35.181Z,622.35
2023-04-15T02:05:45.192Z,622.75
2023-04-15T02:05:55.179Z,621.74
2023-04-15T02:06:05.185Z,621.38
2023-04-15T02:06:15.182Z,622.02
2023-04-15T02:06:25.228Z,621.99
2023-04-15T02:06:35.182Z,621.90
2023-04-15T02:06:45.191Z,622.18
2023-04-15T02:06:55.185Z,622.31
2023-04-15T02:07:05.184Z,622.33
2023-04-15T02:07:25.208Z,622.22
2023-04-15T02:07:35.210Z,622.27
2023-04-15T02:07:45.185Z,622.46
2023-04-15T02:07:55.184Z,622.31
2023-04-15T02:08:05.185Z,622.29
2023-04-15T02:08:15.209Z,622.07
2023-04-15T02:08:35.198Z,622.51
2023-04-15T02:08:45.189Z,622.82
2023-04-15T02:08:55.207Z,622.49
2023-04-15T02:09:05.189Z,622.55
2023-04-15T02:09:15.191Z,622.17
2023-04-15T02:09:25.192Z,622.43
2023-04-15T02:09:45.194Z,622.35
2023-04-15T02:09:55.191Z,622.54
2023-04-15T02:10:05.193Z,622.31
2023-04-15T02:10:15.195Z,622.36
2023-04-15T02:10:25.227Z,622.27
2023-04-15T02:10:35.199Z,621.74
2023-04-15T02:10:45.196Z,622.26
2023-04-15T02:10:55.194Z,622.30
2023-04-15T02:11:05.204Z,622.16
2023-04-15T02:11:15.197Z,622.48
2023-04-15T02:11:35.205Z,622.49
2023-04-15T02:11:45.207Z,622.68
2023-04-15T02:11:55.201Z,622.93
2023-04-15T02:12:05.203Z,622.81
2023-04-15T02:12:15.210Z,622.32
2023-04-15T02:12:25.206Z,622.76
2023-04-15T02:12:35.205Z,622.89
2023-04-15T02:12:55.203Z,622.30
2023-04-15T02:13:05.205Z,622.69
2023-04-15T02:13:15.211Z,622.84
2023-04-15T02:13:25.239Z,622.81
2023-04-15T02:13:35.265Z,623.00
2023-04-15T02:13:45.215Z,623.06
2023-04-15T02:13:55.229Z,622.99
2023-04-15T02:14:05.231Z,622.96
2023-04-15T02:14:15.226Z,622.96
2023-04-15T02:14:25.221Z,623.00
2023-04-15T02:14:45.223Z,623.02
2023-04-15T02:14:55.213Z,623.01
2023-04-15T02:15:05.256Z,622.95
2023-04-15T02:15:15.212Z,622.97
2023-04-15T02:15:25.215Z,622.97
2023-04-15T02:15:35.226Z,623.05
2023-04-15T02:15:45.218Z,623.46
2023-04-15T02:15:55.219Z,623.03
2023-04-15T02:16:15.228Z,622.96
2023-04-15T02:16:25.274Z,623.22
2023-04-15T02:16:35.287Z,622.84
2023-04-15T02:16:45.257Z,622.57